SIA21 EDDF-WSSS
Flight info
| Callsign | SIA21 |
|---|---|
| Flight time | N/A |
| Altitude | 31000 |
| Route | SULUS7S SULUS Z650 VEMUT/N0478F350 DCT NELPA DCT PEPIK DCT AMRAX DCT NARKA DCT RULES DCT ELROM DCT MOBRA DCT DENAK DCT DINRO DCT UDROS DCT ABSAX DCT REBLO/N0487F370 P130 MAMED B449 RANAH L750 ZB G202 RK/N0487F390 P628 IBANI L510 GURVI T1 BBS L759 LADER/N0482F410 L759 PUT B579 VPL Y503 RINBA Y507 MAKNA Y511 TOPOR A464 ARAMA ARAMA1A |
| Aircraft | B772/H-SDE2E3FGHIJ5LORVWXY/LB1D1 |
Departure
| Time | N/A |
|---|---|
| Airport | Frankfurt Main Airport (EDDF) |
Arrival
| Time | 2026-05-05 08:44 |
|---|---|
| Airport | Singapore Changi Airport (WSSS) |
| Time | Latitude | Longitude | Altitude | Speed | Heading |
|---|---|---|---|---|---|
| 2026-05-05 08:18 | 2.13747 | 102.35983 | 40834 ft | 463 kts | 124° |
| 2026-05-05 08:19 | 2.09850 | 102.41152 | 40827 ft | 464 kts | 124° |
| 2026-05-05 08:19 | 2.05979 | 102.46286 | 40553 ft | 458 kts | 124° |
| 2026-05-05 08:20 | 2.04067 | 102.48823 | 39511 ft | 463 kts | 124° |
| 2026-05-05 08:20 | 2.02090 | 102.51449 | 38482 ft | 483 kts | 124° |
| 2026-05-05 08:20 | 2.00048 | 102.54161 | 37618 ft | 487 kts | 124° |
| 2026-05-05 08:20 | 1.98020 | 102.56853 | 36726 ft | 487 kts | 124° |
| 2026-05-05 08:21 | 1.95981 | 102.59559 | 35786 ft | 486 kts | 125° |
| 2026-05-05 08:21 | 1.93967 | 102.62232 | 34828 ft | 486 kts | 125° |
| 2026-05-05 08:21 | 1.91913 | 102.64958 | 33841 ft | 486 kts | 125° |
| 2026-05-05 08:21 | 1.89877 | 102.67661 | 32867 ft | 486 kts | 126° |
| 2026-05-05 08:22 | 1.87856 | 102.70344 | 31910 ft | 487 kts | 126° |
| 2026-05-05 08:22 | 1.85834 | 102.73027 | 30931 ft | 488 kts | 126° |
| 2026-05-05 08:22 | 1.83804 | 102.75723 | 30156 ft | 485 kts | 126° |
| 2026-05-05 08:22 | 1.81783 | 102.78404 | 29657 ft | 477 kts | 126° |
| 2026-05-05 08:23 | 1.79805 | 102.81027 | 29094 ft | 474 kts | 126° |
| 2026-05-05 08:23 | 1.77788 | 102.83706 | 28474 ft | 488 kts | 126° |
| 2026-05-05 08:23 | 1.75737 | 102.86427 | 27835 ft | 487 kts | 126° |
| 2026-05-05 08:23 | 1.73786 | 102.89134 | 27205 ft | 481 kts | 121° |
| 2026-05-05 08:24 | 1.72140 | 102.92028 | 26560 ft | 476 kts | 117° |
| 2026-05-05 08:24 | 1.70590 | 102.94929 | 25899 ft | 471 kts | 117° |
| 2026-05-05 08:24 | 1.69065 | 102.97795 | 25245 ft | 467 kts | 117° |
| 2026-05-05 08:24 | 1.67557 | 103.00627 | 24587 ft | 462 kts | 117° |
| 2026-05-05 08:25 | 1.66055 | 103.03448 | 23928 ft | 458 kts | 117° |
| 2026-05-05 08:25 | 1.64578 | 103.06220 | 23285 ft | 453 kts | 117° |
| 2026-05-05 08:25 | 1.63055 | 103.08961 | 22625 ft | 449 kts | 121° |
| 2026-05-05 08:25 | 1.61174 | 103.11435 | 21976 ft | 446 kts | 130° |
| 2026-05-05 08:26 | 1.58935 | 103.13538 | 21276 ft | 446 kts | 140° |
| 2026-05-05 08:26 | 1.56404 | 103.15332 | 20612 ft | 443 kts | 144° |
| 2026-05-05 08:26 | 1.53878 | 103.17011 | 20080 ft | 436 kts | 144° |
| 2026-05-05 08:26 | 1.51334 | 103.18697 | 19240 ft | 438 kts | 145° |
| 2026-05-05 08:27 | 1.48807 | 103.20368 | 18772 ft | 428 kts | 145° |
| 2026-05-05 08:27 | 1.46347 | 103.21993 | 18073 ft | 427 kts | 145° |
| 2026-05-05 08:27 | 1.44101 | 103.23478 | 17331 ft | 428 kts | 145° |
| 2026-05-05 08:27 | 1.41655 | 103.25094 | 16963 ft | 415 kts | 145° |
| 2026-05-05 08:28 | 1.39288 | 103.26656 | 16584 ft | 402 kts | 145° |
| 2026-05-05 08:28 | 1.36968 | 103.28188 | 15878 ft | 397 kts | 145° |
| 2026-05-05 08:28 | 1.34652 | 103.29717 | 15055 ft | 395 kts | 145° |
| 2026-05-05 08:28 | 1.32376 | 103.31220 | 14281 ft | 392 kts | 145° |
| 2026-05-05 08:29 | 1.30108 | 103.32716 | 13536 ft | 387 kts | 146° |
| 2026-05-05 08:29 | 1.27871 | 103.34193 | 12780 ft | 383 kts | 146° |
| 2026-05-05 08:29 | 1.25675 | 103.35642 | 12106 ft | 377 kts | 146° |
| 2026-05-05 08:30 | 1.21363 | 103.38487 | 10949 ft | 368 kts | 146° |
| 2026-05-05 08:30 | 1.19249 | 103.39882 | 10836 ft | 352 kts | 146° |
| 2026-05-05 08:30 | 1.17250 | 103.41200 | 10769 ft | 336 kts | 146° |
| 2026-05-05 08:30 | 1.15331 | 103.42467 | 10661 ft | 324 kts | 146° |
| 2026-05-05 08:31 | 1.13484 | 103.43685 | 10532 ft | 313 kts | 145° |
| 2026-05-05 08:31 | 1.11706 | 103.44859 | 10400 ft | 303 kts | 146° |
| 2026-05-05 08:31 | 1.09954 | 103.46014 | 10267 ft | 294 kts | 146° |
| 2026-05-05 08:31 | 1.08284 | 103.47117 | 10108 ft | 287 kts | 146° |
| 2026-05-05 08:32 | 1.06617 | 103.48222 | 9950 ft | 279 kts | 143° |
| 2026-05-05 08:32 | 1.05326 | 103.49593 | 9804 ft | 269 kts | 118° |
| 2026-05-05 08:32 | 1.04750 | 103.51318 | 9641 ft | 261 kts | 96° |
| 2026-05-05 08:32 | 1.04702 | 103.53141 | 9302 ft | 263 kts | 86° |
| 2026-05-05 08:33 | 1.04843 | 103.54969 | 8984 ft | 264 kts | 83° |
| 2026-05-05 08:33 | 1.05068 | 103.56764 | 8679 ft | 265 kts | 82° |
| 2026-05-05 08:33 | 1.05304 | 103.58608 | 8341 ft | 267 kts | 82° |
| 2026-05-05 08:33 | 1.05537 | 103.60416 | 8213 ft | 259 kts | 81° |
| 2026-05-05 08:34 | 1.05779 | 103.62166 | 8164 ft | 249 kts | 81° |
| 2026-05-05 08:34 | 1.06017 | 103.63872 | 7887 ft | 250 kts | 81° |
| 2026-05-05 08:34 | 1.06235 | 103.65603 | 7649 ft | 249 kts | 82° |
| 2026-05-05 08:34 | 1.06465 | 103.67310 | 7340 ft | 252 kts | 81° |
| 2026-05-05 08:35 | 1.06713 | 103.69053 | 7124 ft | 249 kts | 81° |
| 2026-05-05 08:35 | 1.06937 | 103.70746 | 6919 ft | 247 kts | 81° |
| 2026-05-05 08:35 | 1.07164 | 103.72443 | 6654 ft | 248 kts | 81° |
| 2026-05-05 08:35 | 1.07378 | 103.74155 | 6423 ft | 247 kts | 82° |
| 2026-05-05 08:36 | 1.07592 | 103.75854 | 6209 ft | 245 kts | 81° |
| 2026-05-05 08:36 | 1.07813 | 103.77525 | 5986 ft | 244 kts | 81° |
| 2026-05-05 08:36 | 1.08027 | 103.79227 | 5690 ft | 247 kts | 81° |
| 2026-05-05 08:36 | 1.08258 | 103.80933 | 5418 ft | 247 kts | 81° |
| 2026-05-05 08:37 | 1.08490 | 103.82606 | 5340 ft | 239 kts | 82° |
| 2026-05-05 08:37 | 1.08757 | 103.84248 | 4987 ft | 244 kts | 70° |
| 2026-05-05 08:37 | 1.09629 | 103.85661 | 4746 ft | 240 kts | 45° |
| 2026-05-05 08:37 | 1.10868 | 103.86812 | 4535 ft | 237 kts | 38° |
| 2026-05-05 08:38 | 1.12190 | 103.87791 | 4276 ft | 238 kts | 34° |
| 2026-05-05 08:38 | 1.13573 | 103.88666 | 3928 ft | 234 kts | 28° |
| 2026-05-05 08:38 | 1.14983 | 103.89377 | 3660 ft | 223 kts | 24° |
| 2026-05-05 08:38 | 1.16377 | 103.90000 | 3427 ft | 212 kts | 23° |
| 2026-05-05 08:39 | 1.17710 | 103.90570 | 3219 ft | 201 kts | 22° |
| 2026-05-05 08:39 | 1.18976 | 103.91090 | 3188 ft | 196 kts | 20° |
| 2026-05-05 08:39 | 1.20234 | 103.91582 | 3053 ft | 195 kts | 21° |
| 2026-05-05 08:39 | 1.21470 | 103.92100 | 2889 ft | 188 kts | 22° |
| 2026-05-05 08:40 | 1.22698 | 103.92629 | 2630 ft | 190 kts | 22° |
| 2026-05-05 08:40 | 1.23908 | 103.93144 | 2329 ft | 191 kts | 22° |
| 2026-05-05 08:40 | 1.25143 | 103.93656 | 2066 ft | 188 kts | 21° |
| 2026-05-05 08:40 | 1.26318 | 103.94154 | 1815 ft | 175 kts | 23° |
| 2026-05-05 08:41 | 1.27389 | 103.94612 | 1481 ft | 161 kts | 21° |
| 2026-05-05 08:41 | 1.28383 | 103.95026 | 1249 ft | 148 kts | 20° |
| 2026-05-05 08:41 | 1.29316 | 103.95390 | 1077 ft | 141 kts | 21° |
| 2026-05-05 08:41 | 1.30216 | 103.95772 | 952 ft | 139 kts | 21° |
| 2026-05-05 08:42 | 1.31115 | 103.96136 | 797 ft | 140 kts | 21° |
| 2026-05-05 08:42 | 1.32017 | 103.96518 | 645 ft | 139 kts | 22° |
| 2026-05-05 08:42 | 1.32905 | 103.96894 | 504 ft | 140 kts | 22° |
| 2026-05-05 08:42 | 1.33792 | 103.97275 | 302 ft | 138 kts | 23° |
| 2026-05-05 08:43 | 1.34690 | 103.97655 | 128 ft | 139 kts | 22° |
| 2026-05-05 08:43 | 1.35554 | 103.98018 | 38 ft | 120 kts | 21° |
| 2026-05-05 08:43 | 1.36155 | 103.98274 | 40 ft | 67 kts | 22° |
| 2026-05-05 08:43 | 1.36525 | 103.98429 | 40 ft | 53 kts | 22° |
| 2026-05-05 08:44 | 1.36738 | 103.98608 | 37 ft | 32 kts | 53° |
| 2026-05-05 08:44 | 1.36832 | 103.98735 | 35 ft | 16 kts | 53° |
| 2026-05-05 08:44 | 1.36809 | 103.98855 | 34 ft | 12 kts | 161° |
| 2026-05-05 08:44 | 1.36720 | 103.98815 | 32 ft | 16 kts | 208° |
| 2026-05-05 08:45 | 1.36599 | 103.98761 | 29 ft | 20 kts | 204° |
| 2026-05-05 08:45 | 1.36457 | 103.98701 | 29 ft | 22 kts | 203° |
| 2026-05-05 08:45 | 1.36309 | 103.98637 | 32 ft | 23 kts | 203° |
| 2026-05-05 08:45 | 1.36157 | 103.98573 | 35 ft | 23 kts | 203° |
| 2026-05-05 08:46 | 1.36038 | 103.98523 | 34 ft | 17 kts | 203° |
| 2026-05-05 08:46 | 1.35916 | 103.98471 | 35 ft | 19 kts | 203° |
| 2026-05-05 08:46 | 1.35793 | 103.98419 | 33 ft | 13 kts | 203° |
| 2026-05-05 08:46 | 1.35723 | 103.98395 | 32 ft | 9 kts | 182° |
| 2026-05-05 08:47 | 1.35665 | 103.98417 | 33 ft | 9 kts | 154° |
| 2026-05-05 08:47 | 1.35621 | 103.98436 | 34 ft | 5 kts | 156° |
| 2026-05-05 08:47 | 1.35599 | 103.98446 | 35 ft | 0 kts | 155° |